createdAt,value
2018-02-08T00:01:49.041Z,28.60
2018-02-08T00:04:16.612Z,28.58
2018-02-08T00:06:44.185Z,28.77
2018-02-08T00:09:11.770Z,26.45
2018-02-08T00:11:40.281Z,29.37
2018-02-08T00:14:07.873Z,26.45
2018-02-08T00:16:35.432Z,27.15
2018-02-08T00:19:03.141Z,28.65
2018-02-08T00:21:31.473Z,27.65
2018-02-08T00:23:59.802Z,27.67
2018-02-08T00:26:27.376Z,29.15
2018-02-08T00:28:54.936Z,27.73
2018-02-08T00:31:22.907Z,27.75
2018-02-08T00:33:50.478Z,27.85
2018-02-08T00:36:18.034Z,30.00
2018-02-08T00:38:45.598Z,28.25
2018-02-08T00:41:13.170Z,28.08
2018-02-08T00:43:40.754Z,26.10
2018-02-08T00:46:08.377Z,25.00
2018-02-08T00:48:36.240Z,28.25
2018-02-08T00:51:03.803Z,28.58
2018-02-08T00:53:31.357Z,26.15
2018-02-08T00:55:58.984Z,26.15
2018-02-08T00:58:27.337Z,30.90
2018-02-08T01:00:55.744Z,27.98
2018-02-08T01:03:24.130Z,27.65
2018-02-08T01:05:52.554Z,28.20
2018-02-08T01:08:20.253Z,28.48
2018-02-08T01:10:47.877Z,28.65
2018-02-08T01:13:15.455Z,26.75
2018-02-08T01:15:43.019Z,26.37
2018-02-08T01:18:10.582Z,25.88
2018-02-08T01:20:38.172Z,27.33
2018-02-08T01:23:05.748Z,27.42
2018-02-08T01:25:33.335Z,26.02
2018-02-08T01:28:00.977Z,27.23
2018-02-08T01:30:28.661Z,27.20
2018-02-08T01:32:56.224Z,24.10
2018-02-08T01:35:23.798Z,28.30
2018-02-08T01:37:51.354Z,27.75
2018-02-08T01:40:18.978Z,26.58
2018-02-08T01:42:47.320Z,25.58
2018-02-08T01:45:15.646Z,27.17
2018-02-08T01:47:43.227Z,26.90
2018-02-08T01:50:10.777Z,30.05
2018-02-08T01:52:38.305Z,29.27
2018-02-08T01:55:06.650Z,28.95
2018-02-08T01:57:34.251Z,28.42
2018-02-08T02:00:01.818Z,28.15
2018-02-08T02:02:30.161Z,27.67
2018-02-08T02:04:57.766Z,26.60
2018-02-08T02:07:26.469Z,27.85
2018-02-08T02:09:54.026Z,28.75
2018-02-08T02:12:21.593Z,27.42
2018-02-08T02:14:49.316Z,25.30
2018-02-08T02:17:17.654Z,26.55
2018-02-08T02:19:45.225Z,25.23
2018-02-08T02:22:12.921Z,26.02
2018-02-08T02:24:40.550Z,28.42
2018-02-08T02:27:08.127Z,27.92
2018-02-08T02:29:36.486Z,25.67
2018-02-08T02:32:04.053Z,28.08
2018-02-08T02:34:31.636Z,26.40
2018-02-08T02:36:59.201Z,29.45
2018-02-08T02:39:27.582Z,28.77
2018-02-08T02:41:55.934Z,31.85
2018-02-08T02:44:23.512Z,28.60
2018-02-08T02:46:51.834Z,29.67
2018-02-08T02:49:19.394Z,29.85
2018-02-08T02:51:47.022Z,28.35
2018-02-08T02:54:15.453Z,30.27
2018-02-08T02:56:43.063Z,29.40
2018-02-08T02:59:11.486Z,30.60
2018-02-08T03:01:39.053Z,32.42
2018-02-08T03:04:06.655Z,30.65
2018-02-08T03:06:35.070Z,30.95
2018-02-08T03:09:03.386Z,31.83
2018-02-08T03:11:30.947Z,31.87
2018-02-08T03:13:58.502Z,31.12
2018-02-08T03:16:26.093Z,28.95
2018-02-08T03:18:53.671Z,30.30
2018-02-08T03:21:21.273Z,30.77
2018-02-08T03:23:48.882Z,30.67
2018-02-08T03:26:16.436Z,28.30
2018-02-08T03:28:44.760Z,29.98
2018-02-08T03:31:12.325Z,29.10
2018-02-08T03:33:40.047Z,29.45
2018-02-08T03:36:08.360Z,27.17
2018-02-08T03:38:35.915Z,26.90
2018-02-08T03:41:04.237Z,28.10
2018-02-08T03:43:31.799Z,27.35
2018-02-08T03:45:59.350Z,29.58
2018-02-08T03:48:26.933Z,28.45
2018-02-08T03:50:54.469Z,28.00
2018-02-08T03:53:22.080Z,27.58
2018-02-08T03:55:49.730Z,30.42
2018-02-08T03:58:18.053Z,28.25
2018-02-08T04:00:45.645Z,28.45
2018-02-08T04:03:13.197Z,29.80
2018-02-08T04:05:40.750Z,28.92
2018-02-08T04:08:08.308Z,30.10
2018-02-08T04:10:35.881Z,27.05
2018-02-08T04:13:03.649Z,27.23
2018-02-08T04:15:31.204Z,27.90
2018-02-08T04:17:58.873Z,29.30
2018-02-08T04:20:26.425Z,33.60
2018-02-08T04:22:53.997Z,30.00
2018-02-08T04:25:21.641Z,31.58
2018-02-08T04:27:49.196Z,30.45
2018-02-08T04:30:16.818Z,31.50
2018-02-08T04:32:44.561Z,28.77
2018-02-08T04:35:12.148Z,30.02
2018-02-08T04:37:39.806Z,29.35
2018-02-08T04:40:19.239Z,30.92
2018-02-08T04:42:58.594Z,31.17
2018-02-08T04:45:37.897Z,29.58
2018-02-08T04:48:07.480Z,29.02
2018-02-08T04:50:35.086Z,28.42
2018-02-08T04:53:12.571Z,31.48
2018-02-08T04:55:40.900Z,29.92
2018-02-08T04:58:08.488Z,30.00
2018-02-08T05:00:36.080Z,30.17
2018-02-08T05:03:03.647Z,29.12
2018-02-08T05:05:31.211Z,29.87
2018-02-08T05:07:58.770Z,31.60
2018-02-08T05:10:26.497Z,30.70
2018-02-08T05:12:54.032Z,29.42
2018-02-08T05:15:21.613Z,29.25
2018-02-08T05:17:49.324Z,32.13
2018-02-08T05:20:16.874Z,33.10
2018-02-08T05:22:45.189Z,36.22
2018-02-08T05:25:12.800Z,34.35
2018-02-08T05:27:40.364Z,31.77
2018-02-08T05:30:07.923Z,32.72
2018-02-08T05:32:35.482Z,32.25
2018-02-08T05:35:03.033Z,33.50
2018-02-08T05:37:30.593Z,32.40
2018-02-08T05:39:58.188Z,30.05
2018-02-08T05:42:25.799Z,31.30
2018-02-08T05:44:53.317Z,35.35
2018-02-08T05:47:20.896Z,35.40
2018-02-08T05:49:49.222Z,34.30
2018-02-08T05:52:16.978Z,32.33
2018-02-08T05:54:44.545Z,32.58
2018-02-08T05:57:12.113Z,31.70
2018-02-08T05:59:39.721Z,32.17
2018-02-08T06:02:08.043Z,33.83
2018-02-08T06:04:35.605Z,30.33
2018-02-08T06:07:03.163Z,33.10
2018-02-08T06:09:30.725Z,32.55
2018-02-08T06:11:58.328Z,33.58
2018-02-08T06:14:25.944Z,31.23
2018-02-08T06:16:53.528Z,32.45
2018-02-08T06:19:21.890Z,31.60
2018-02-08T06:21:50.251Z,34.55
2018-02-08T06:24:17.806Z,30.90
2018-02-08T06:26:46.146Z,34.40
2018-02-08T06:29:13.711Z,31.45
2018-02-08T06:31:42.052Z,32.03
2018-02-08T06:34:09.646Z,31.75
2018-02-08T06:36:37.294Z,32.38
2018-02-08T06:39:04.836Z,29.75
2018-02-08T06:41:32.413Z,31.40
2018-02-08T06:44:00.033Z,30.98
2018-02-08T06:46:27.573Z,30.65
2018-02-08T06:48:55.985Z,32.70
2018-02-08T06:51:23.565Z,33.80
2018-02-08T06:53:51.165Z,32.83
2018-02-08T06:56:18.746Z,32.72
2018-02-08T06:58:47.069Z,30.92
2018-02-08T07:01:14.854Z,31.42
2018-02-08T07:03:42.405Z,30.65
2018-02-08T07:06:10.061Z,30.65
2018-02-08T07:08:37.636Z,30.92
2018-02-08T07:11:05.228Z,32.65
2018-02-08T07:13:32.865Z,30.95
2018-02-08T07:16:00.504Z,33.50
2018-02-08T07:18:28.089Z,34.72
2018-02-08T07:20:55.770Z,34.50
2018-02-08T07:23:24.135Z,33.55
2018-02-08T07:25:51.690Z,33.58
2018-02-08T07:28:19.292Z,34.03
2018-02-08T07:30:47.746Z,34.83
2018-02-08T07:33:15.549Z,35.88
2018-02-08T07:35:43.862Z,39.70
2018-02-08T07:38:11.439Z,39.75
2018-02-08T07:40:39.081Z,39.75
2018-02-08T07:43:06.717Z,36.50
2018-02-08T07:45:34.305Z,34.00
2018-02-08T07:48:01.892Z,35.00
2018-02-08T07:50:30.330Z,34.92
2018-02-08T07:52:57.901Z,36.00
2018-02-08T07:55:25.478Z,35.40
2018-02-08T07:57:53.122Z,36.90
2018-02-08T08:00:20.704Z,34.83
2018-02-08T08:02:48.555Z,35.28
2018-02-08T08:05:16.124Z,35.88
2018-02-08T08:07:43.689Z,36.95
2018-02-08T08:10:11.356Z,33.88
2018-02-08T08:12:38.929Z,35.13
2018-02-08T08:15:06.501Z,36.55
2018-02-08T08:17:34.071Z,34.17
2018-02-08T08:20:02.409Z,33.78
2018-02-08T08:22:29.994Z,32.85
2018-02-08T08:24:57.563Z,32.75
2018-02-08T08:27:25.153Z,31.33
2018-02-08T08:29:53.490Z,32.80
2018-02-08T08:32:21.082Z,32.60
2018-02-08T08:34:48.693Z,30.40
2018-02-08T08:37:16.261Z,28.95
2018-02-08T08:39:43.833Z,32.45
2018-02-08T08:42:11.425Z,29.35
2018-02-08T08:44:38.989Z,30.37
2018-02-08T08:47:07.333Z,31.25
2018-02-08T08:49:34.909Z,30.23
2018-02-08T08:52:02.492Z,29.70
2018-02-08T08:54:31.862Z,30.10
2018-02-08T08:56:59.781Z,28.67
2018-02-08T08:59:28.137Z,29.15
2018-02-08T09:01:55.729Z,28.12
2018-02-08T09:04:23.370Z,26.95
2018-02-08T09:06:50.929Z,27.17
2018-02-08T09:09:19.278Z,25.73
2018-02-08T09:11:46.832Z,28.40
2018-02-08T09:14:14.391Z,30.08
2018-02-08T09:16:42.000Z,28.33
2018-02-08T09:19:10.437Z,26.90
2018-02-08T09:21:38.000Z,28.40
2018-02-08T09:24:05.631Z,26.05
2018-02-08T09:26:33.239Z,27.95
2018-02-08T09:29:00.837Z,28.33
2018-02-08T09:31:28.419Z,26.40
2018-02-08T09:33:56.189Z,27.25
2018-02-08T09:36:23.769Z,27.33
2018-02-08T09:38:51.361Z,26.12
2018-02-08T09:41:18.882Z,26.98
2018-02-08T09:43:46.449Z,25.33
2018-02-08T09:46:14.001Z,26.87
2018-02-08T09:48:41.578Z,26.05
2018-02-08T09:51:09.179Z,25.55
2018-02-08T09:53:36.738Z,26.60
2018-02-08T09:56:05.072Z,24.85
2018-02-08T09:58:32.725Z,26.77
2018-02-08T10:01:00.286Z,25.62
2018-02-08T10:03:27.846Z,26.87
2018-02-08T10:05:55.439Z,28.27
2018-02-08T10:08:22.995Z,26.65
2018-02-08T10:10:50.553Z,26.60
2018-02-08T10:13:18.121Z,27.27
2018-02-08T10:15:46.841Z,27.15
2018-02-08T10:18:14.403Z,28.05
2018-02-08T10:20:42.018Z,28.15
2018-02-08T10:23:09.592Z,28.45
2018-02-08T10:25:37.170Z,27.48
2018-02-08T10:28:05.511Z,28.02
2018-02-08T10:30:33.067Z,26.80
2018-02-08T10:33:00.631Z,27.67
2018-02-08T10:35:28.222Z,28.35
2018-02-08T10:37:56.533Z,28.87
2018-02-08T10:40:24.120Z,28.35
2018-02-08T10:42:51.682Z,28.05
2018-02-08T10:45:19.247Z,28.75
2018-02-08T10:47:46.921Z,30.15
2018-02-08T10:50:14.493Z,29.75
2018-02-08T10:52:42.805Z,31.37
2018-02-08T10:55:10.936Z,30.25
2018-02-08T10:57:38.554Z,29.25
2018-02-08T11:00:06.116Z,30.75
2018-02-08T11:02:33.693Z,31.10
2018-02-08T11:05:01.309Z,30.58
2018-02-08T11:07:29.665Z,31.30
2018-02-08T11:09:57.399Z,29.42
2018-02-08T11:12:24.976Z,30.15
2018-02-08T11:14:52.550Z,33.78
2018-02-08T11:17:20.129Z,31.50
2018-02-08T11:19:48.467Z,31.73
2018-02-08T11:22:16.013Z,31.50
2018-02-08T11:24:43.588Z,30.85
2018-02-08T11:27:11.149Z,32.50
2018-02-08T11:29:38.748Z,31.12
2018-02-08T11:32:07.109Z,31.40
2018-02-08T11:34:34.700Z,31.20
2018-02-08T11:37:03.059Z,31.00
2018-02-08T11:39:30.643Z,33.33
2018-02-08T11:41:58.984Z,29.37
2018-02-08T11:44:26.537Z,32.40
2018-02-08T11:46:54.095Z,31.20
2018-02-08T11:49:21.732Z,31.65
2018-02-08T11:51:49.297Z,30.73
2018-02-08T11:54:16.878Z,31.25
2018-02-08T11:56:44.446Z,32.15
2018-02-08T11:59:11.996Z,31.73
2018-02-08T12:01:39.561Z,30.73
2018-02-08T12:04:07.106Z,31.52
2018-02-08T12:06:34.719Z,32.40
2018-02-08T12:09:02.249Z,31.95
2018-02-08T12:11:29.851Z,29.65
2018-02-08T12:13:57.430Z,31.92
2018-02-08T12:16:25.814Z,29.73
2018-02-08T12:18:54.232Z,29.25
2018-02-08T12:21:21.813Z,30.05
2018-02-08T12:23:49.393Z,30.17
2018-02-08T12:26:17.121Z,29.00
2018-02-08T12:28:44.694Z,29.52
2018-02-08T12:31:12.572Z,31.23
2018-02-08T12:33:40.157Z,31.35
2018-02-08T12:36:08.514Z,29.10
2018-02-08T12:38:36.089Z,28.52
2018-02-08T12:41:04.413Z,30.12
2018-02-08T12:43:31.981Z,28.90
2018-02-08T12:45:59.567Z,31.48
2018-02-08T12:48:27.189Z,30.73
2018-02-08T12:50:55.632Z,31.17
2018-02-08T12:53:23.203Z,30.40
2018-02-08T12:55:50.838Z,31.58
2018-02-08T12:58:18.468Z,30.42
2018-02-08T13:00:46.098Z,28.75
2018-02-08T13:03:13.696Z,29.25
2018-02-08T13:05:41.273Z,29.00
2018-02-08T13:08:09.617Z,29.77
2018-02-08T13:10:37.197Z,30.52
2018-02-08T13:13:04.768Z,29.48
2018-02-08T13:15:32.389Z,32.15
2018-02-08T13:17:59.971Z,30.48
2018-02-08T13:20:27.569Z,28.15
2018-02-08T13:22:55.967Z,26.30
2018-02-08T13:25:23.541Z,28.70
2018-02-08T13:27:51.103Z,26.40
2018-02-08T13:30:18.693Z,29.58
2018-02-08T13:32:46.257Z,26.87
2018-02-08T13:35:13.835Z,26.87
2018-02-08T13:37:41.404Z,26.10
2018-02-08T13:40:12.565Z,28.15
2018-02-08T13:42:40.921Z,26.87
2018-02-08T13:45:08.502Z,27.60
2018-02-08T13:47:56.424Z,26.95
2018-02-08T13:53:31.180Z,25.27
2018-02-08T13:56:04.476Z,25.23
2018-02-08T13:58:38.403Z,25.60
2018-02-08T14:04:08.637Z,25.10
2018-02-08T14:06:36.222Z,25.35
2018-02-08T14:09:04.674Z,25.05
2018-02-08T14:11:32.331Z,25.37
2018-02-08T14:13:59.874Z,26.35
2018-02-08T14:16:27.466Z,26.80
2018-02-08T14:18:55.183Z,24.05
2018-02-08T14:21:22.814Z,27.48
2018-02-08T14:23:50.372Z,32.30
2018-02-08T14:26:18.781Z,29.55
2018-02-08T14:28:46.875Z,29.95
2018-02-08T14:31:14.442Z,31.75
2018-02-08T14:33:42.010Z,29.30
2018-02-08T14:36:09.568Z,32.40
2018-02-08T14:38:37.138Z,29.83
2018-02-08T14:41:04.727Z,31.30
2018-02-08T14:43:32.280Z,33.08
2018-02-08T14:46:00.653Z,31.77
2018-02-08T14:48:28.214Z,31.60
2018-02-08T14:50:55.817Z,30.12
2018-02-08T14:53:27.302Z,31.55
2018-02-08T14:55:54.964Z,29.10
2018-02-08T14:58:22.505Z,29.92
2018-02-08T15:00:50.084Z,30.60
2018-02-08T15:03:17.651Z,27.67
2018-02-08T15:05:45.249Z,30.88
2018-02-08T15:08:12.867Z,31.70
2018-02-08T15:10:40.456Z,30.50
2018-02-08T15:13:08.082Z,31.67
2018-02-08T15:15:35.659Z,31.62
2018-02-08T15:18:03.406Z,26.80
2018-02-08T15:20:31.731Z,30.17
2018-02-08T15:22:59.296Z,30.20
2018-02-08T15:25:26.915Z,31.42
2018-02-08T15:27:54.466Z,29.70
2018-02-08T15:30:22.825Z,29.90
2018-02-08T15:32:50.407Z,28.00
2018-02-08T15:35:18.757Z,31.40
2018-02-08T15:37:46.325Z,33.63
2018-02-08T15:40:13.932Z,31.52
2018-02-08T15:42:41.558Z,29.45
2018-02-08T15:45:09.164Z,30.65
2018-02-08T15:47:36.736Z,28.77
2018-02-08T15:50:04.332Z,29.87
2018-02-08T15:52:32.101Z,28.27
2018-02-08T15:54:59.732Z,30.58
2018-02-08T15:57:27.322Z,29.35
2018-02-08T15:59:54.892Z,31.33
2018-02-08T16:02:22.480Z,31.85
2018-02-08T16:04:51.367Z,30.75
2018-02-08T16:07:20.049Z,31.60
2018-02-08T16:09:47.650Z,31.40
2018-02-08T16:12:15.237Z,31.65
2018-02-08T16:14:42.825Z,30.08
2018-02-08T16:17:10.408Z,30.25
2018-02-08T16:19:38.055Z,30.40
2018-02-08T16:22:05.713Z,28.98
2018-02-08T16:24:33.266Z,29.87
2018-02-08T16:27:00.879Z,31.17
2018-02-08T16:29:28.441Z,29.85
2018-02-08T16:31:56.016Z,31.87
2018-02-08T16:34:23.617Z,32.00
2018-02-08T16:36:51.429Z,32.80
2018-02-08T16:39:19.016Z,31.77
2018-02-08T16:41:46.639Z,31.10
2018-02-08T16:44:14.994Z,34.63
2018-02-08T16:46:44.685Z,34.40
2018-02-08T16:49:12.412Z,33.22
2018-02-08T16:51:40.036Z,33.85
2018-02-08T16:54:07.632Z,32.80
2018-02-08T16:56:35.303Z,32.85
2018-02-08T16:59:02.921Z,35.45
2018-02-08T17:01:31.267Z,37.10
2018-02-08T17:03:58.890Z,33.25
2018-02-08T17:06:26.499Z,36.40
2018-02-08T17:08:54.057Z,36.92
2018-02-08T17:11:21.692Z,36.90
2018-02-08T17:13:49.332Z,37.15
2018-02-08T17:16:16.927Z,38.28
2018-02-08T17:18:44.509Z,38.00
2018-02-08T17:21:12.092Z,41.45
2018-02-08T17:23:39.648Z,38.25
2018-02-08T17:26:07.282Z,37.42
2018-02-08T17:28:34.897Z,41.55
2018-02-08T17:31:02.519Z,39.90
2018-02-08T17:33:30.099Z,41.83
2018-02-08T17:35:57.655Z,45.22
2018-02-08T17:38:25.214Z,39.65
2018-02-08T17:40:52.823Z,42.95
2018-02-08T17:43:21.415Z,45.55
2018-02-08T17:45:49.000Z,43.28
2018-02-08T17:48:16.617Z,46.53
2018-02-08T17:50:44.232Z,45.92
2018-02-08T17:53:11.808Z,45.90
2018-02-08T17:55:39.381Z,46.47
2018-02-08T17:58:07.727Z,47.33
2018-02-08T18:00:35.305Z,46.37
2018-02-08T18:03:02.924Z,47.22
2018-02-08T18:05:30.534Z,45.60
2018-02-08T18:07:58.708Z,46.72
2018-02-08T18:10:26.288Z,45.03
2018-02-08T18:12:54.796Z,45.10
2018-02-08T18:15:22.389Z,45.40
2018-02-08T18:17:49.954Z,46.53
2018-02-08T18:20:17.519Z,46.47
2018-02-08T18:22:45.124Z,48.10
2018-02-08T18:25:13.469Z,46.35
2018-02-08T18:27:41.109Z,44.00
2018-02-08T18:30:08.685Z,43.65
2018-02-08T18:32:37.037Z,44.85
2018-02-08T18:35:04.598Z,45.47
2018-02-08T18:37:32.339Z,42.97
2018-02-08T18:40:00.098Z,48.67
2018-02-08T18:42:41.639Z,42.40
2018-02-08T18:45:09.204Z,47.92
2018-02-08T18:47:36.855Z,48.78
2018-02-08T18:50:05.178Z,50.53
2018-02-08T18:52:32.806Z,50.60
2018-02-08T18:55:01.175Z,48.35
2018-02-08T18:57:29.523Z,52.90
2018-02-08T18:59:57.114Z,57.33
2018-02-08T19:02:24.705Z,58.58
2018-02-08T19:04:53.105Z,52.20
2018-02-08T19:07:20.871Z,61.45
2018-02-08T19:09:48.433Z,58.08
2018-02-08T19:12:16.023Z,70.28
2018-02-08T19:14:43.601Z,80.57
2018-02-08T19:17:13.773Z,74.12
2018-02-08T19:19:45.923Z,66.37
2018-02-08T19:22:17.019Z,56.75
2018-02-08T19:24:45.373Z,52.42
2018-02-08T19:27:12.952Z,53.97
2018-02-08T19:29:40.669Z,54.60
2018-02-08T19:32:08.274Z,52.95
2018-02-08T19:34:35.886Z,53.75
2018-02-08T19:37:03.472Z,56.50
2018-02-08T19:39:31.077Z,49.80
2018-02-08T19:42:00.046Z,54.38
2018-02-08T19:44:27.617Z,48.20
2018-02-08T19:46:55.992Z,49.65
2018-02-08T19:49:24.365Z,47.25
2018-02-08T19:51:51.924Z,48.28
2018-02-08T19:54:19.558Z,49.03
2018-02-08T19:56:47.705Z,44.42
2018-02-08T19:59:19.514Z,47.58
2018-02-08T20:01:47.285Z,48.10
2018-02-08T20:04:14.995Z,47.88
2018-02-08T20:06:42.653Z,47.65
2018-02-08T20:09:10.278Z,51.80
2018-02-08T20:11:38.012Z,50.75
2018-02-08T20:14:11.269Z,44.25
2018-02-08T20:16:40.874Z,48.00
2018-02-08T20:19:08.584Z,47.10
2018-02-08T20:21:36.201Z,51.37
2018-02-08T20:24:03.859Z,48.22
2018-02-08T20:26:31.524Z,47.55
2018-02-08T20:28:59.179Z,46.92
2018-02-08T20:31:29.214Z,47.88
2018-02-08T20:33:56.838Z,48.58
2018-02-08T20:36:24.436Z,46.28
2018-02-08T20:38:52.767Z,49.80
2018-02-08T20:41:21.284Z,48.83
2018-02-08T20:43:48.897Z,47.83
2018-02-08T20:46:16.877Z,49.10
2018-02-08T20:48:44.516Z,48.65
2018-02-08T20:51:12.158Z,49.88
2018-02-08T20:53:39.749Z,46.08
2018-02-08T20:56:07.366Z,45.85
2018-02-08T20:58:35.008Z,48.20
2018-02-08T21:01:02.682Z,50.67
2018-02-08T21:03:34.966Z,52.10
2018-02-08T21:06:03.457Z,50.97
2018-02-08T21:08:32.226Z,48.17
2018-02-08T21:10:59.908Z,49.15
2018-02-08T21:13:28.503Z,46.97
2018-02-08T21:15:56.623Z,50.35
2018-02-08T21:18:24.684Z,50.65
2018-02-08T21:20:52.872Z,50.28
2018-02-08T21:23:20.476Z,49.13
2018-02-08T21:25:48.140Z,50.15
2018-02-08T21:28:17.819Z,50.70
2018-02-08T21:30:46.306Z,49.63
2018-02-08T21:33:14.039Z,53.42
2018-02-08T21:35:41.964Z,54.80
2018-02-08T21:38:09.752Z,53.92
2018-02-08T21:40:37.488Z,53.17
2018-02-08T21:43:05.320Z,51.33
2018-02-08T21:45:38.038Z,56.95
2018-02-08T21:48:05.859Z,54.38
2018-02-08T21:50:33.596Z,51.22
2018-02-08T21:53:01.479Z,51.75
2018-02-08T21:55:29.149Z,53.85
2018-02-08T21:57:57.093Z,51.20
2018-02-08T22:00:26.647Z,48.55
2018-02-08T22:02:54.359Z,48.78
2018-02-08T22:05:21.929Z,50.97
2018-02-08T22:07:49.512Z,50.60
2018-02-08T22:10:17.077Z,50.08
2018-02-08T22:12:44.680Z,52.20
2018-02-08T22:15:13.042Z,50.88
2018-02-08T22:17:40.642Z,52.47
2018-02-08T22:20:08.355Z,53.55
2018-02-08T22:22:35.946Z,55.22
2018-02-08T22:25:04.318Z,51.45
2018-02-08T22:27:32.681Z,54.63
2018-02-08T22:30:00.275Z,56.97
2018-02-08T22:32:28.611Z,54.38
2018-02-08T22:34:56.253Z,53.30
2018-02-08T22:37:23.811Z,52.70
2018-02-08T22:39:51.404Z,53.40
2018-02-08T22:42:18.973Z,51.28
2018-02-08T22:44:46.692Z,53.38
2018-02-08T22:47:14.281Z,53.25
2018-02-08T22:49:41.865Z,53.15
2018-02-08T22:52:10.209Z,52.38
2018-02-08T22:54:37.928Z,54.55
2018-02-08T22:57:06.276Z,54.17
2018-02-08T22:59:35.065Z,54.05
2018-02-08T23:02:02.629Z,55.47
2018-02-08T23:04:30.622Z,53.95
2018-02-08T23:06:58.998Z,53.28
2018-02-08T23:09:27.338Z,54.90
2018-02-08T23:11:54.942Z,58.72
2018-02-08T23:14:23.286Z,56.10
2018-02-08T23:16:50.867Z,54.45
2018-02-08T23:19:19.242Z,58.42
2018-02-08T23:21:46.803Z,57.85
2018-02-08T23:24:14.609Z,52.67
2018-02-08T23:26:42.166Z,55.85
2018-02-08T23:29:09.847Z,53.58
2018-02-08T23:31:37.457Z,57.47
2018-02-08T23:34:06.542Z,53.95
2018-02-08T23:36:34.187Z,56.70
2018-02-08T23:39:01.839Z,54.85
2018-02-08T23:41:29.901Z,56.72
2018-02-08T23:43:57.493Z,58.87
2018-02-08T23:46:25.091Z,58.87
2018-02-08T23:48:52.724Z,55.92
2018-02-08T23:51:20.279Z,59.72
2018-02-08T23:53:48.694Z,65.22
2018-02-08T23:56:17.041Z,58.55
2018-02-08T23:58:44.629Z,60.42
